sensor_id;sensor_type;location;lat;lon;timestamp;temperature;humidity
37050;DHT22;22958;51.232;6.826;2024-02-23T00:00:26;7.10;1.00
37050;DHT22;22958;51.232;6.826;2024-02-23T00:02:52;7.10;1.00
37050;DHT22;22958;51.232;6.826;2024-02-23T00:05:19;7.10;1.00
37050;DHT22;22958;51.232;6.826;2024-02-23T00:07:45;7.10;1.00
37050;DHT22;22958;51.232;6.826;2024-02-23T00:10:10;7.10;1.00
37050;DHT22;22958;51.232;6.826;2024-02-23T00:12:36;7.10;1.00
37050;DHT22;22958;51.232;6.826;2024-02-23T00:15:01;7.10;1.00
37050;DHT22;22958;51.232;6.826;2024-02-23T00:17:27;7.10;1.00
37050;DHT22;22958;51.232;6.826;2024-02-23T00:19:52;7.00;99.90
37050;DHT22;22958;51.232;6.826;2024-02-23T00:22:18;6.80;99.90
37050;DHT22;22958;51.232;6.826;2024-02-23T00:24:44;6.70;1.00
37050;DHT22;22958;51.232;6.826;2024-02-23T00:27:09;6.60;1.00
37050;DHT22;22958;51.232;6.826;2024-02-23T00:29:35;6.60;99.90
37050;DHT22;22958;51.232;6.826;2024-02-23T00:32:01;6.60;99.90
37050;DHT22;22958;51.232;6.826;2024-02-23T00:34:27;6.60;1.00
37050;DHT22;22958;51.232;6.826;2024-02-23T00:36:52;6.50;1.00
37050;DHT22;22958;51.232;6.826;2024-02-23T00:39:18;6.50;1.00
37050;DHT22;22958;51.232;6.826;2024-02-23T00:41:44;6.50;99.90
37050;DHT22;22958;51.232;6.826;2024-02-23T00:44:09;6.50;99.90
37050;DHT22;22958;51.232;6.826;2024-02-23T00:46:34;6.40;99.90
37050;DHT22;22958;51.232;6.826;2024-02-23T00:49:00;6.40;99.90
37050;DHT22;22958;51.232;6.826;2024-02-23T00:51:26;6.40;1.00
37050;DHT22;22958;51.232;6.826;2024-02-23T00:53:52;6.40;1.00
37050;DHT22;22958;51.232;6.826;2024-02-23T00:56:18;6.40;1.00
37050;DHT22;22958;51.232;6.826;2024-02-23T00:58:43;6.30;32.90
37050;DHT22;22958;51.232;6.826;2024-02-23T01:01:09;6.30;99.90
37050;DHT22;22958;51.232;6.826;2024-02-23T01:03:34;6.30;1.00
37050;DHT22;22958;51.232;6.826;2024-02-23T01:06:00;6.30;1.00
37050;DHT22;22958;51.232;6.826;2024-02-23T01:08:25;6.30;99.90
37050;DHT22;22958;51.232;6.826;2024-02-23T01:10:51;6.20;99.90
37050;DHT22;22958;51.232;6.826;2024-02-23T01:13:17;6.30;1.00
37050;DHT22;22958;51.232;6.826;2024-02-23T01:15:42;6.20;1.00
37050;DHT22;22958;51.232;6.826;2024-02-23T01:18:08;6.30;1.00
37050;DHT22;22958;51.232;6.826;2024-02-23T01:20:34;6.30;1.00
37050;DHT22;22958;51.232;6.826;2024-02-23T01:22:59;6.30;1.00
37050;DHT22;22958;51.232;6.826;2024-02-23T01:25:25;6.40;1.00
37050;DHT22;22958;51.232;6.826;2024-02-23T01:27:51;6.40;99.90
37050;DHT22;22958;51.232;6.826;2024-02-23T01:30:17;6.50;1.00
37050;DHT22;22958;51.232;6.826;2024-02-23T01:32:44;6.50;99.90
37050;DHT22;22958;51.232;6.826;2024-02-23T01:35:10;6.50;99.90
37050;DHT22;22958;51.232;6.826;2024-02-23T01:37:35;6.50;99.90
37050;DHT22;22958;51.232;6.826;2024-02-23T01:40:01;6.50;99.90
37050;DHT22;22958;51.232;6.826;2024-02-23T01:42:27;6.50;99.90
37050;DHT22;22958;51.232;6.826;2024-02-23T01:44:53;6.50;99.90
37050;DHT22;22958;51.232;6.826;2024-02-23T01:47:18;6.50;99.90
37050;DHT22;22958;51.232;6.826;2024-02-23T01:49:46;6.50;99.90
37050;DHT22;22958;51.232;6.826;2024-02-23T01:52:13;6.50;99.90
37050;DHT22;22958;51.232;6.826;2024-02-23T01:54:39;6.40;99.90
37050;DHT22;22958;51.232;6.826;2024-02-23T01:57:04;6.40;99.90
37050;DHT22;22958;51.232;6.826;2024-02-23T01:59:31;6.40;1.00
37050;DHT22;22958;51.232;6.826;2024-02-23T02:01:56;6.40;1.00
37050;DHT22;22958;51.232;6.826;2024-02-23T02:04:22;6.30;1.00
37050;DHT22;22958;51.232;6.826;2024-02-23T02:06:48;6.30;81.20
37050;DHT22;22958;51.232;6.826;2024-02-23T02:09:14;6.30;1.00
37050;DHT22;22958;51.232;6.826;2024-02-23T02:11:49;6.30;1.00
37050;DHT22;22958;51.232;6.826;2024-02-23T02:14:15;6.30;99.90
37050;DHT22;22958;51.232;6.826;2024-02-23T02:16:41;6.30;99.90
37050;DHT22;22958;51.232;6.826;2024-02-23T02:19:06;6.30;99.90
37050;DHT22;22958;51.232;6.826;2024-02-23T02:21:33;6.30;99.90
37050;DHT22;22958;51.232;6.826;2024-02-23T02:23:59;6.30;99.90
37050;DHT22;22958;51.232;6.826;2024-02-23T02:26:24;6.30;99.90
37050;DHT22;22958;51.232;6.826;2024-02-23T02:28:50;6.20;99.90
37050;DHT22;22958;51.232;6.826;2024-02-23T02:31:15;6.20;99.90
37050;DHT22;22958;51.232;6.826;2024-02-23T02:33:41;6.20;99.90
37050;DHT22;22958;51.232;6.826;2024-02-23T02:36:07;6.20;99.90
37050;DHT22;22958;51.232;6.826;2024-02-23T02:38:32;6.20;99.90
37050;DHT22;22958;51.232;6.826;2024-02-23T02:40:59;6.10;99.90
37050;DHT22;22958;51.232;6.826;2024-02-23T02:43:26;6.10;99.90
37050;DHT22;22958;51.232;6.826;2024-02-23T02:45:51;6.10;99.90
37050;DHT22;22958;51.232;6.826;2024-02-23T02:48:17;6.10;99.90
37050;DHT22;22958;51.232;6.826;2024-02-23T02:50:43;6.10;99.90
37050;DHT22;22958;51.232;6.826;2024-02-23T02:53:09;6.10;99.90
37050;DHT22;22958;51.232;6.826;2024-02-23T02:55:36;6.10;99.90
37050;DHT22;22958;51.232;6.826;2024-02-23T02:58:01;6.00;99.90
37050;DHT22;22958;51.232;6.826;2024-02-23T03:00:27;6.10;99.90
37050;DHT22;22958;51.232;6.826;2024-02-23T03:02:53;6.10;99.90
37050;DHT22;22958;51.232;6.826;2024-02-23T03:05:18;6.10;99.90
37050;DHT22;22958;51.232;6.826;2024-02-23T03:07:44;6.10;47.10
37050;DHT22;22958;51.232;6.826;2024-02-23T03:10:10;6.00;99.90
37050;DHT22;22958;51.232;6.826;2024-02-23T03:12:35;6.10;99.90
37050;DHT22;22958;51.232;6.826;2024-02-23T03:15:01;6.10;99.90
37050;DHT22;22958;51.232;6.826;2024-02-23T03:17:28;6.10;74.40
37050;DHT22;22958;51.232;6.826;2024-02-23T03:19:54;6.10;56.30
37050;DHT22;22958;51.232;6.826;2024-02-23T03:22:19;6.10;99.00
37050;DHT22;22958;51.232;6.826;2024-02-23T03:24:45;6.10;94.00
37050;DHT22;22958;51.232;6.826;2024-02-23T03:27:10;6.10;86.70
37050;DHT22;22958;51.232;6.826;2024-02-23T03:29:38;6.10;73.50
37050;DHT22;22958;51.232;6.826;2024-02-23T03:32:06;6.10;96.60
37050;DHT22;22958;51.232;6.826;2024-02-23T03:34:31;6.00;99.90
37050;DHT22;22958;51.232;6.826;2024-02-23T03:36:57;6.00;41.20
37050;DHT22;22958;51.232;6.826;2024-02-23T03:39:24;6.00;99.90
37050;DHT22;22958;51.232;6.826;2024-02-23T03:41:49;6.00;78.50
37050;DHT22;22958;51.232;6.826;2024-02-23T03:44:15;6.00;78.00
37050;DHT22;22958;51.232;6.826;2024-02-23T03:46:40;6.00;99.90
37050;DHT22;22958;51.232;6.826;2024-02-23T03:49:06;5.90;67.10
37050;DHT22;22958;51.232;6.826;2024-02-23T03:51:32;5.90;99.90
37050;DHT22;22958;51.232;6.826;2024-02-23T03:54:02;5.90;37.20
37050;DHT22;22958;51.232;6.826;2024-02-23T03:56:28;5.90;1.00
37050;DHT22;22958;51.232;6.826;2024-02-23T03:58:54;5.90;1.00
37050;DHT22;22958;51.232;6.826;2024-02-23T04:01:19;5.90;1.00
37050;DHT22;22958;51.232;6.826;2024-02-23T04:03:45;5.90;1.00
37050;DHT22;22958;51.232;6.826;2024-02-23T04:06:10;5.90;1.00
37050;DHT22;22958;51.232;6.826;2024-02-23T04:08:36;6.00;1.00
37050;DHT22;22958;51.232;6.826;2024-02-23T04:11:01;6.10;1.00
37050;DHT22;22958;51.232;6.826;2024-02-23T04:13:27;6.00;99.90
37050;DHT22;22958;51.232;6.826;2024-02-23T04:15:52;6.10;99.90
37050;DHT22;22958;51.232;6.826;2024-02-23T04:18:18;6.00;99.90
37050;DHT22;22958;51.232;6.826;2024-02-23T04:20:43;6.00;99.90
37050;DHT22;22958;51.232;6.826;2024-02-23T04:23:08;6.10;99.90
37050;DHT22;22958;51.232;6.826;2024-02-23T04:25:34;6.10;99.90
37050;DHT22;22958;51.232;6.826;2024-02-23T04:27:59;6.10;99.90
37050;DHT22;22958;51.232;6.826;2024-02-23T04:30:25;6.10;99.90
37050;DHT22;22958;51.232;6.826;2024-02-23T04:32:50;6.10;99.90
37050;DHT22;22958;51.232;6.826;2024-02-23T04:35:16;6.10;99.90
37050;DHT22;22958;51.232;6.826;2024-02-23T04:37:45;6.20;99.90
37050;DHT22;22958;51.232;6.826;2024-02-23T04:40:11;6.20;99.90
37050;DHT22;22958;51.232;6.826;2024-02-23T04:42:37;6.20;99.90
37050;DHT22;22958;51.232;6.826;2024-02-23T04:45:03;6.30;99.90
37050;DHT22;22958;51.232;6.826;2024-02-23T04:47:28;6.30;99.90
37050;DHT22;22958;51.232;6.826;2024-02-23T04:49:54;6.30;99.90
37050;DHT22;22958;51.232;6.826;2024-02-23T04:52:19;6.30;99.90
37050;DHT22;22958;51.232;6.826;2024-02-23T04:54:45;6.30;99.90
37050;DHT22;22958;51.232;6.826;2024-02-23T04:57:11;6.40;99.90
37050;DHT22;22958;51.232;6.826;2024-02-23T04:59:36;6.40;99.90
37050;DHT22;22958;51.232;6.826;2024-02-23T05:02:02;6.50;99.90
37050;DHT22;22958;51.232;6.826;2024-02-23T05:04:27;6.50;99.90
37050;DHT22;22958;51.232;6.826;2024-02-23T05:06:53;6.60;99.90
37050;DHT22;22958;51.232;6.826;2024-02-23T05:09:19;6.60;99.90
37050;DHT22;22958;51.232;6.826;2024-02-23T05:11:46;6.60;99.90
37050;DHT22;22958;51.232;6.826;2024-02-23T05:14:12;6.60;99.90
37050;DHT22;22958;51.232;6.826;2024-02-23T05:16:38;6.60;99.90
37050;DHT22;22958;51.232;6.826;2024-02-23T05:19:03;6.60;99.90
37050;DHT22;22958;51.232;6.826;2024-02-23T05:21:29;6.60;99.90
37050;DHT22;22958;51.232;6.826;2024-02-23T05:23:54;6.60;99.90
37050;DHT22;22958;51.232;6.826;2024-02-23T05:26:20;6.70;99.90
37050;DHT22;22958;51.232;6.826;2024-02-23T05:28:45;6.70;99.90
37050;DHT22;22958;51.232;6.826;2024-02-23T05:31:11;6.70;99.90
37050;DHT22;22958;51.232;6.826;2024-02-23T05:33:36;6.70;99.90
37050;DHT22;22958;51.232;6.826;2024-02-23T05:36:04;6.70;99.90
37050;DHT22;22958;51.232;6.826;2024-02-23T05:38:29;6.70;99.90
37050;DHT22;22958;51.232;6.826;2024-02-23T05:40:55;6.70;99.90
37050;DHT22;22958;51.232;6.826;2024-02-23T05:43:21;6.60;99.90
37050;DHT22;22958;51.232;6.826;2024-02-23T05:45:46;6.60;99.90
37050;DHT22;22958;51.232;6.826;2024-02-23T05:48:12;6.60;99.90
37050;DHT22;22958;51.232;6.826;2024-02-23T05:50:37;6.60;99.90
37050;DHT22;22958;51.232;6.826;2024-02-23T05:53:03;6.60;99.90
37050;DHT22;22958;51.232;6.826;2024-02-23T05:55:30;6.60;99.90
37050;DHT22;22958;51.232;6.826;2024-02-23T05:57:55;6.60;99.90
37050;DHT22;22958;51.232;6.826;2024-02-23T06:00:21;6.50;99.90
37050;DHT22;22958;51.232;6.826;2024-02-23T06:02:47;6.60;99.90
37050;DHT22;22958;51.232;6.826;2024-02-23T06:05:13;6.60;99.90
37050;DHT22;22958;51.232;6.826;2024-02-23T06:07:38;6.60;99.90
37050;DHT22;22958;51.232;6.826;2024-02-23T06:10:04;6.60;99.90
37050;DHT22;22958;51.232;6.826;2024-02-23T06:12:30;6.60;99.90
37050;DHT22;22958;51.232;6.826;2024-02-23T06:14:56;6.60;99.90
37050;DHT22;22958;51.232;6.826;2024-02-23T06:17:22;6.50;99.90
37050;DHT22;22958;51.232;6.826;2024-02-23T06:19:48;6.50;99.90
37050;DHT22;22958;51.232;6.826;2024-02-23T06:22:14;6.60;99.90
37050;DHT22;22958;51.232;6.826;2024-02-23T06:24:42;6.50;99.90
37050;DHT22;22958;51.232;6.826;2024-02-23T06:27:08;6.60;99.90
37050;DHT22;22958;51.232;6.826;2024-02-23T06:29:35;6.50;99.90
37050;DHT22;22958;51.232;6.826;2024-02-23T06:32:01;6.50;99.90
37050;DHT22;22958;51.232;6.826;2024-02-23T06:34:28;6.50;99.90
37050;DHT22;22958;51.232;6.826;2024-02-23T06:36:53;6.60;99.90
37050;DHT22;22958;51.232;6.826;2024-02-23T06:39:19;6.50;99.90
37050;DHT22;22958;51.232;6.826;2024-02-23T06:41:45;6.50;99.90
37050;DHT22;22958;51.232;6.826;2024-02-23T06:44:11;6.50;99.90
37050;DHT22;22958;51.232;6.826;2024-02-23T06:46:36;6.50;99.90
37050;DHT22;22958;51.232;6.826;2024-02-23T06:49:02;6.60;99.90
37050;DHT22;22958;51.232;6.826;2024-02-23T06:51:28;6.50;99.90
37050;DHT22;22958;51.232;6.826;2024-02-23T06:53:53;6.50;99.90
37050;DHT22;22958;51.232;6.826;2024-02-23T06:56:19;6.60;99.90
37050;DHT22;22958;51.232;6.826;2024-02-23T06:58:44;6.60;99.90
37050;DHT22;22958;51.232;6.826;2024-02-23T07:01:10;6.50;99.90
37050;DHT22;22958;51.232;6.826;2024-02-23T07:03:38;6.50;99.90
37050;DHT22;22958;51.232;6.826;2024-02-23T07:06:05;6.40;99.90
37050;DHT22;22958;51.232;6.826;2024-02-23T07:08:30;6.40;99.90
37050;DHT22;22958;51.232;6.826;2024-02-23T07:10:57;6.40;99.90
37050;DHT22;22958;51.232;6.826;2024-02-23T07:13:23;6.50;99.90
37050;DHT22;22958;51.232;6.826;2024-02-23T07:15:48;6.50;99.90
37050;DHT22;22958;51.232;6.826;2024-02-23T07:18:14;6.50;99.90
37050;DHT22;22958;51.232;6.826;2024-02-23T07:20:41;6.50;99.90
37050;DHT22;22958;51.232;6.826;2024-02-23T07:23:07;6.60;99.90
37050;DHT22;22958;51.232;6.826;2024-02-23T07:25:33;6.60;99.90
37050;DHT22;22958;51.232;6.826;2024-02-23T07:27:58;6.60;99.90
37050;DHT22;22958;51.232;6.826;2024-02-23T07:30:24;6.70;99.90
37050;DHT22;22958;51.232;6.826;2024-02-23T07:32:50;6.80;99.90
37050;DHT22;22958;51.232;6.826;2024-02-23T07:35:15;6.80;99.90
37050;DHT22;22958;51.232;6.826;2024-02-23T07:37:41;6.80;99.90
37050;DHT22;22958;51.232;6.826;2024-02-23T07:40:07;6.90;99.90
37050;DHT22;22958;51.232;6.826;2024-02-23T07:42:33;6.90;99.90
37050;DHT22;22958;51.232;6.826;2024-02-23T07:45:02;6.90;99.90
37050;DHT22;22958;51.232;6.826;2024-02-23T07:47:30;7.00;99.90
37050;DHT22;22958;51.232;6.826;2024-02-23T07:49:55;7.10;99.90
37050;DHT22;22958;51.232;6.826;2024-02-23T07:52:21;7.20;99.90
37050;DHT22;22958;51.232;6.826;2024-02-23T07:54:49;7.20;99.90
37050;DHT22;22958;51.232;6.826;2024-02-23T07:57:17;7.20;99.90
37050;DHT22;22958;51.232;6.826;2024-02-23T07:59:43;7.10;99.90
37050;DHT22;22958;51.232;6.826;2024-02-23T08:02:08;7.20;99.90
37050;DHT22;22958;51.232;6.826;2024-02-23T08:04:34;7.40;99.90
37050;DHT22;22958;51.232;6.826;2024-02-23T08:06:59;7.40;99.90
37050;DHT22;22958;51.232;6.826;2024-02-23T08:09:25;7.40;99.90
37050;DHT22;22958;51.232;6.826;2024-02-23T08:11:51;7.40;99.90
37050;DHT22;22958;51.232;6.826;2024-02-23T08:14:16;7.40;99.90
37050;DHT22;22958;51.232;6.826;2024-02-23T08:16:42;7.30;99.90
37050;DHT22;22958;51.232;6.826;2024-02-23T08:19:07;7.20;99.90
37050;DHT22;22958;51.232;6.826;2024-02-23T08:21:33;7.10;99.90
37050;DHT22;22958;51.232;6.826;2024-02-23T08:23:59;7.10;99.90
37050;DHT22;22958;51.232;6.826;2024-02-23T08:26:24;7.10;99.90
37050;DHT22;22958;51.232;6.826;2024-02-23T08:28:50;7.00;99.90
37050;DHT22;22958;51.232;6.826;2024-02-23T08:31:15;7.10;99.90
37050;DHT22;22958;51.232;6.826;2024-02-23T08:33:42;7.10;99.90
37050;DHT22;22958;51.232;6.826;2024-02-23T08:36:07;7.20;99.90
37050;DHT22;22958;51.232;6.826;2024-02-23T08:38:33;7.20;99.90
37050;DHT22;22958;51.232;6.826;2024-02-23T08:40:59;7.30;99.90
37050;DHT22;22958;51.232;6.826;2024-02-23T08:43:24;7.40;93.30
37050;DHT22;22958;51.232;6.826;2024-02-23T08:45:50;7.40;95.40
37050;DHT22;22958;51.232;6.826;2024-02-23T08:48:16;7.50;86.80
37050;DHT22;22958;51.232;6.826;2024-02-23T08:50:43;7.50;80.30
37050;DHT22;22958;51.232;6.826;2024-02-23T08:53:09;7.60;85.10
37050;DHT22;22958;51.232;6.826;2024-02-23T08:55:34;7.60;92.20
37050;DHT22;22958;51.232;6.826;2024-02-23T08:58:00;7.70;80.70
37050;DHT22;22958;51.232;6.826;2024-02-23T09:00:25;7.60;90.70
37050;DHT22;22958;51.232;6.826;2024-02-23T09:02:51;7.60;87.60
37050;DHT22;22958;51.232;6.826;2024-02-23T09:05:17;7.60;90.20
37050;DHT22;22958;51.232;6.826;2024-02-23T09:07:42;7.60;99.70
37050;DHT22;22958;51.232;6.826;2024-02-23T09:10:08;7.60;94.20
37050;DHT22;22958;51.232;6.826;2024-02-23T09:12:34;7.70;90.30
37050;DHT22;22958;51.232;6.826;2024-02-23T09:14:59;7.80;57.70
37050;DHT22;22958;51.232;6.826;2024-02-23T09:17:25;7.80;51.80
37050;DHT22;22958;51.232;6.826;2024-02-23T09:19:51;7.90;21.50
37050;DHT22;22958;51.232;6.826;2024-02-23T09:22:16;7.90;18.90
37050;DHT22;22958;51.232;6.826;2024-02-23T09:24:42;8.00;17.60
37050;DHT22;22958;51.232;6.826;2024-02-23T09:27:08;8.00;10.00
37050;DHT22;22958;51.232;6.826;2024-02-23T09:29:34;8.00;4.10
37050;DHT22;22958;51.232;6.826;2024-02-23T09:31:59;8.10;3.80
37050;DHT22;22958;51.232;6.826;2024-02-23T09:34:26;8.20;2.40
37050;DHT22;22958;51.232;6.826;2024-02-23T09:36:51;8.30;1.00
37050;DHT22;22958;51.232;6.826;2024-02-23T09:39:17;8.40;1.00
37050;DHT22;22958;51.232;6.826;2024-02-23T09:41:43;8.40;1.00
37050;DHT22;22958;51.232;6.826;2024-02-23T09:44:09;8.40;1.00
37050;DHT22;22958;51.232;6.826;2024-02-23T09:46:37;8.30;1.00
37050;DHT22;22958;51.232;6.826;2024-02-23T09:49:03;8.30;1.00
37050;DHT22;22958;51.232;6.826;2024-02-23T09:51:31;8.30;1.00
37050;DHT22;22958;51.232;6.826;2024-02-23T09:53:58;8.20;1.00
37050;DHT22;22958;51.232;6.826;2024-02-23T09:56:27;8.20;1.00
37050;DHT22;22958;51.232;6.826;2024-02-23T09:58:53;8.20;1.00
37050;DHT22;22958;51.232;6.826;2024-02-23T10:01:28;8.30;1.00
37050;DHT22;22958;51.232;6.826;2024-02-23T10:03:57;8.40;1.00
37050;DHT22;22958;51.232;6.826;2024-02-23T10:06:26;8.50;1.00
37050;DHT22;22958;51.232;6.826;2024-02-23T10:08:52;8.50;1.00
37050;DHT22;22958;51.232;6.826;2024-02-23T10:11:22;8.60;1.00
37050;DHT22;22958;51.232;6.826;2024-02-23T10:13:48;8.60;1.00
37050;DHT22;22958;51.232;6.826;2024-02-23T10:16:21;8.70;1.00
37050;DHT22;22958;51.232;6.826;2024-02-23T10:18:47;8.80;1.00
37050;DHT22;22958;51.232;6.826;2024-02-23T10:21:16;8.70;1.00
37050;DHT22;22958;51.232;6.826;2024-02-23T10:23:44;8.90;1.00
37050;DHT22;22958;51.232;6.826;2024-02-23T10:26:10;9.00;1.00
37050;DHT22;22958;51.232;6.826;2024-02-23T10:28:39;9.10;1.00
37050;DHT22;22958;51.232;6.826;2024-02-23T10:31:05;9.00;1.00
37050;DHT22;22958;51.232;6.826;2024-02-23T10:33:31;8.90;1.00
37050;DHT22;22958;51.232;6.826;2024-02-23T10:35:57;8.80;1.00
37050;DHT22;22958;51.232;6.826;2024-02-23T10:38:23;8.80;1.00
37050;DHT22;22958;51.232;6.826;2024-02-23T10:40:50;8.80;1.00
37050;DHT22;22958;51.232;6.826;2024-02-23T10:43:19;8.80;1.00
37050;DHT22;22958;51.232;6.826;2024-02-23T10:45:46;8.90;1.00
37050;DHT22;22958;51.232;6.826;2024-02-23T10:48:12;8.90;1.00
37050;DHT22;22958;51.232;6.826;2024-02-23T10:50:40;8.80;1.00
37050;DHT22;22958;51.232;6.826;2024-02-23T10:53:07;8.70;1.00
37050;DHT22;22958;51.232;6.826;2024-02-23T10:55:36;8.70;1.00
37050;DHT22;22958;51.232;6.826;2024-02-23T10:58:03;8.70;1.00
37050;DHT22;22958;51.232;6.826;2024-02-23T11:00:33;8.80;1.00
37050;DHT22;22958;51.232;6.826;2024-02-23T11:02:58;8.80;1.00
37050;DHT22;22958;51.232;6.826;2024-02-23T11:05:24;8.80;1.00
37050;DHT22;22958;51.232;6.826;2024-02-23T11:07:51;8.90;1.00
37050;DHT22;22958;51.232;6.826;2024-02-23T11:10:17;8.90;1.00
37050;DHT22;22958;51.232;6.826;2024-02-23T11:12:43;8.90;1.00
37050;DHT22;22958;51.232;6.826;2024-02-23T11:15:09;8.80;1.00
37050;DHT22;22958;51.232;6.826;2024-02-23T11:17:36;8.80;1.00
37050;DHT22;22958;51.232;6.826;2024-02-23T11:20:06;8.80;1.00
37050;DHT22;22958;51.232;6.826;2024-02-23T11:22:33;8.80;1.00
37050;DHT22;22958;51.232;6.826;2024-02-23T11:25:04;8.80;1.00
37050;DHT22;22958;51.232;6.826;2024-02-23T11:27:32;8.90;1.00
37050;DHT22;22958;51.232;6.826;2024-02-23T11:30:06;8.90;1.00
37050;DHT22;22958;51.232;6.826;2024-02-23T11:35:03;9.10;1.00
37050;DHT22;22958;51.232;6.826;2024-02-23T11:37:31;9.10;1.00
37050;DHT22;22958;51.232;6.826;2024-02-23T11:39:56;9.10;1.00
37050;DHT22;22958;51.232;6.826;2024-02-23T11:42:23;9.10;1.00
37050;DHT22;22958;51.232;6.826;2024-02-23T11:44:49;9.10;1.00
37050;DHT22;22958;51.232;6.826;2024-02-23T11:47:15;9.10;1.00
37050;DHT22;22958;51.232;6.826;2024-02-23T11:49:42;9.10;1.00
37050;DHT22;22958;51.232;6.826;2024-02-23T11:52:07;9.00;1.00
37050;DHT22;22958;51.232;6.826;2024-02-23T11:54:33;9.00;1.00
37050;DHT22;22958;51.232;6.826;2024-02-23T11:56:59;9.00;1.00
37050;DHT22;22958;51.232;6.826;2024-02-23T11:59:25;9.00;1.00
37050;DHT22;22958;51.232;6.826;2024-02-23T12:01:51;9.00;1.00
37050;DHT22;22958;51.232;6.826;2024-02-23T12:04:16;9.00;1.00
37050;DHT22;22958;51.232;6.826;2024-02-23T12:06:42;9.00;1.00
37050;DHT22;22958;51.232;6.826;2024-02-23T12:09:08;9.00;1.00
37050;DHT22;22958;51.232;6.826;2024-02-23T12:11:34;9.10;1.00
37050;DHT22;22958;51.232;6.826;2024-02-23T12:14:01;9.20;1.00
37050;DHT22;22958;51.232;6.826;2024-02-23T12:16:28;9.30;1.00
37050;DHT22;22958;51.232;6.826;2024-02-23T12:18:54;9.30;1.00
37050;DHT22;22958;51.232;6.826;2024-02-23T12:21:23;9.30;1.00
37050;DHT22;22958;51.232;6.826;2024-02-23T12:23:50;9.30;1.00
37050;DHT22;22958;51.232;6.826;2024-02-23T12:26:17;9.30;1.00
37050;DHT22;22958;51.232;6.826;2024-02-23T12:28:44;9.30;1.00
37050;DHT22;22958;51.232;6.826;2024-02-23T12:31:10;9.40;1.00
37050;DHT22;22958;51.232;6.826;2024-02-23T12:33:39;9.40;1.00
37050;DHT22;22958;51.232;6.826;2024-02-23T12:36:06;9.30;1.00
37050;DHT22;22958;51.232;6.826;2024-02-23T12:38:32;9.30;1.00
37050;DHT22;22958;51.232;6.826;2024-02-23T12:40:59;9.40;1.00
37050;DHT22;22958;51.232;6.826;2024-02-23T12:43:24;9.40;1.00
37050;DHT22;22958;51.232;6.826;2024-02-23T12:45:51;9.40;1.00
37050;DHT22;22958;51.232;6.826;2024-02-23T12:48:17;9.50;1.00
37050;DHT22;22958;51.232;6.826;2024-02-23T12:50:43;9.50;1.00
37050;DHT22;22958;51.232;6.826;2024-02-23T12:55:54;9.60;1.00
37050;DHT22;22958;51.232;6.826;2024-02-23T12:58:19;9.60;1.00
37050;DHT22;22958;51.232;6.826;2024-02-23T13:00:45;9.60;1.00
37050;DHT22;22958;51.232;6.826;2024-02-23T13:03:10;9.60;1.00
37050;DHT22;22958;51.232;6.826;2024-02-23T13:05:36;9.70;1.00
37050;DHT22;22958;51.232;6.826;2024-02-23T13:08:01;9.90;1.00
37050;DHT22;22958;51.232;6.826;2024-02-23T13:10:27;10.10;1.00
37050;DHT22;22958;51.232;6.826;2024-02-23T13:12:52;10.00;1.00
37050;DHT22;22958;51.232;6.826;2024-02-23T13:15:18;10.00;1.00
37050;DHT22;22958;51.232;6.826;2024-02-23T13:17:43;10.20;1.00
37050;DHT22;22958;51.232;6.826;2024-02-23T13:20:09;10.60;1.00
37050;DHT22;22958;51.232;6.826;2024-02-23T13:22:38;10.80;1.00
37050;DHT22;22958;51.232;6.826;2024-02-23T13:25:04;10.60;1.00
37050;DHT22;22958;51.232;6.826;2024-02-23T13:27:29;10.40;1.00
37050;DHT22;22958;51.232;6.826;2024-02-23T13:29:55;10.20;1.00
37050;DHT22;22958;51.232;6.826;2024-02-23T13:32:20;10.10;1.00
37050;DHT22;22958;51.232;6.826;2024-02-23T13:34:46;10.20;1.00
37050;DHT22;22958;51.232;6.826;2024-02-23T13:37:12;10.30;1.00
37050;DHT22;22958;51.232;6.826;2024-02-23T13:39:37;10.20;1.00
37050;DHT22;22958;51.232;6.826;2024-02-23T13:42:03;10.00;1.00
37050;DHT22;22958;51.232;6.826;2024-02-23T13:44:30;10.00;1.00
37050;DHT22;22958;51.232;6.826;2024-02-23T13:46:56;9.90;1.00
37050;DHT22;22958;51.232;6.826;2024-02-23T13:49:22;9.90;1.00
37050;DHT22;22958;51.232;6.826;2024-02-23T13:51:47;9.90;1.00
37050;DHT22;22958;51.232;6.826;2024-02-23T13:54:13;9.90;1.00
37050;DHT22;22958;51.232;6.826;2024-02-23T13:56:38;9.80;1.00
37050;DHT22;22958;51.232;6.826;2024-02-23T13:59:04;9.80;1.00
37050;DHT22;22958;51.232;6.826;2024-02-23T14:01:29;9.90;1.00
37050;DHT22;22958;51.232;6.826;2024-02-23T14:03:55;10.00;1.00
37050;DHT22;22958;51.232;6.826;2024-02-23T14:06:20;10.00;1.00
37050;DHT22;22958;51.232;6.826;2024-02-23T14:08:46;10.00;1.00
37050;DHT22;22958;51.232;6.826;2024-02-23T14:11:13;10.10;1.00
37050;DHT22;22958;51.232;6.826;2024-02-23T14:13:39;10.00;1.00
37050;DHT22;22958;51.232;6.826;2024-02-23T14:16:07;10.10;1.00
37050;DHT22;22958;51.232;6.826;2024-02-23T14:18:33;10.10;1.00
37050;DHT22;22958;51.232;6.826;2024-02-23T14:21:03;10.10;1.00
37050;DHT22;22958;51.232;6.826;2024-02-23T14:23:29;10.10;1.00
37050;DHT22;22958;51.232;6.826;2024-02-23T14:25:55;10.10;1.00
37050;DHT22;22958;51.232;6.826;2024-02-23T14:28:20;10.10;1.00
37050;DHT22;22958;51.232;6.826;2024-02-23T14:30:46;9.90;1.00
37050;DHT22;22958;51.232;6.826;2024-02-23T14:33:11;9.90;1.00
37050;DHT22;22958;51.232;6.826;2024-02-23T14:35:37;9.90;1.00
37050;DHT22;22958;51.232;6.826;2024-02-23T14:38:02;9.90;1.00
37050;DHT22;22958;51.232;6.826;2024-02-23T14:40:28;10.00;1.00
37050;DHT22;22958;51.232;6.826;2024-02-23T14:42:53;10.30;1.00
37050;DHT22;22958;51.232;6.826;2024-02-23T14:45:19;10.40;1.00
37050;DHT22;22958;51.232;6.826;2024-02-23T14:47:44;10.40;1.00
37050;DHT22;22958;51.232;6.826;2024-02-23T14:50:10;10.30;1.00
37050;DHT22;22958;51.232;6.826;2024-02-23T14:52:36;10.20;1.00
37050;DHT22;22958;51.232;6.826;2024-02-23T14:55:02;10.20;1.00
37050;DHT22;22958;51.232;6.826;2024-02-23T14:57:29;10.20;1.00
37050;DHT22;22958;51.232;6.826;2024-02-23T14:59:54;10.30;1.00
37050;DHT22;22958;51.232;6.826;2024-02-23T15:02:21;10.30;1.00
37050;DHT22;22958;51.232;6.826;2024-02-23T15:04:47;10.20;1.00
37050;DHT22;22958;51.232;6.826;2024-02-23T15:07:12;10.10;1.00
37050;DHT22;22958;51.232;6.826;2024-02-23T15:09:38;10.20;1.00
37050;DHT22;22958;51.232;6.826;2024-02-23T15:12:04;10.20;1.00
37050;DHT22;22958;51.232;6.826;2024-02-23T15:14:30;10.10;1.00
37050;DHT22;22958;51.232;6.826;2024-02-23T15:16:55;10.00;1.00
37050;DHT22;22958;51.232;6.826;2024-02-23T15:19:21;9.90;1.00
37050;DHT22;22958;51.232;6.826;2024-02-23T15:21:48;9.90;1.00
37050;DHT22;22958;51.232;6.826;2024-02-23T15:24:14;9.90;1.00
37050;DHT22;22958;51.232;6.826;2024-02-23T15:26:43;9.80;1.00
37050;DHT22;22958;51.232;6.826;2024-02-23T15:29:09;9.50;1.00
37050;DHT22;22958;51.232;6.826;2024-02-23T15:31:35;9.30;1.00
37050;DHT22;22958;51.232;6.826;2024-02-23T15:34:00;9.30;1.00
37050;DHT22;22958;51.232;6.826;2024-02-23T15:36:27;9.40;1.00
37050;DHT22;22958;51.232;6.826;2024-02-23T15:38:53;9.50;1.00
37050;DHT22;22958;51.232;6.826;2024-02-23T15:41:24;9.50;1.00
37050;DHT22;22958;51.232;6.826;2024-02-23T15:43:49;9.50;1.00
37050;DHT22;22958;51.232;6.826;2024-02-23T15:46:15;9.50;1.00
37050;DHT22;22958;51.232;6.826;2024-02-23T15:48:40;9.50;1.00